Terminal Aerodrome Forecast
Issued by NWS Cleveland, OH

Home | Current Version | Previous Version | Graphics & Text | Print | Product List | Glossary Off
Versions: 1 2 3 4 5 6 7 8 9 10 11 12 13 14 15 16 17 18

822
FTUS41 KCLE 251351 AAA
TAFYNG
TAF AMD
KYNG 251351Z 2514/2612 31005KT P6SM VCSH OVC006
     FM252100 32010KT P6SM OVC010
     FM260300 32009KT P6SM BKN008
     FM260800 30005KT P6SM BKN006
     FM260900 30005KT P6SM BKN003
     FM261100 30005KT P6SM BKN035=

USA.gov is the U.S. government's official web portal to all federal, state and local government web resources and services.